createdAt,value
2024-02-02T00:07:10.178Z,25.52
2024-02-02T00:12:12.440Z,26.02
2024-02-02T00:17:13.044Z,24.92
2024-02-02T00:22:11.982Z,25.80
2024-02-02T00:27:11.925Z,25.80
2024-02-02T00:32:12.339Z,30.17
2024-02-02T00:37:11.209Z,26.80
2024-02-02T00:42:10.189Z,29.35
2024-02-02T00:47:09.353Z,28.42
2024-02-02T00:52:09.650Z,26.45
2024-02-02T00:57:09.079Z,32.75
2024-02-02T01:02:08.015Z,28.33
2024-02-02T01:07:07.080Z,29.98
2024-02-02T01:12:08.109Z,24.35
2024-02-02T01:17:08.248Z,28.35
2024-02-02T01:22:07.311Z,27.73
2024-02-02T01:27:07.891Z,25.30
2024-02-02T01:32:07.961Z,28.23
2024-02-02T01:37:06.997Z,29.00
2024-02-02T01:42:07.839Z,27.65
2024-02-02T01:47:07.342Z,26.25
2024-02-02T01:52:07.127Z,26.42
2024-02-02T01:57:07.563Z,20.35
2024-02-02T02:02:07.783Z,23.88
2024-02-02T02:07:06.847Z,24.08
2024-02-02T02:12:07.895Z,25.95
2024-02-02T02:17:07.124Z,21.60
2024-02-02T02:22:07.947Z,25.48
2024-02-02T02:27:06.992Z,24.00
2024-02-02T02:32:07.872Z,24.25
2024-02-02T02:37:08.290Z,25.23
2024-02-02T02:42:07.596Z,29.60
2024-02-02T02:47:07.447Z,26.48
2024-02-02T02:52:08.512Z,27.45
2024-02-02T02:57:07.653Z,29.23
2024-02-02T03:02:06.761Z,33.42
2024-02-02T03:07:07.447Z,31.23
2024-02-02T03:12:07.287Z,34.08
2024-02-02T03:17:06.639Z,31.25
2024-02-02T03:22:05.824Z,28.88
2024-02-02T03:27:06.496Z,29.05
2024-02-02T03:32:05.947Z,32.88
2024-02-02T03:37:04.827Z,35.47
2024-02-02T03:42:05.762Z,32.33
2024-02-02T03:47:06.000Z,28.35
2024-02-02T03:52:06.873Z,33.13
2024-02-02T03:57:07.362Z,28.85
2024-02-02T04:02:06.275Z,32.28
2024-02-02T04:07:05.618Z,31.48
2024-02-02T04:12:06.644Z,67.90
2024-02-02T04:17:05.911Z,46.15
2024-02-02T04:22:05.261Z,43.50
2024-02-02T04:27:04.430Z,49.88
2024-02-02T04:32:05.122Z,37.08
2024-02-02T04:37:04.265Z,35.13
2024-02-02T04:42:03.765Z,31.98
2024-02-02T04:47:02.670Z,31.27
2024-02-02T04:52:03.036Z,30.73
2024-02-02T04:57:02.230Z,45.63
2024-02-02T05:02:03.979Z,34.20
2024-02-02T05:07:06.674Z,41.55
2024-02-02T05:12:06.369Z,40.90
2024-02-02T05:17:05.609Z,35.47
2024-02-02T05:22:06.596Z,39.60
2024-02-02T05:27:06.085Z,40.78
2024-02-02T05:32:05.501Z,42.63
2024-02-02T05:37:06.152Z,38.13
2024-02-02T05:42:05.474Z,38.45
2024-02-02T05:47:04.599Z,40.25
2024-02-02T05:52:03.796Z,39.67
2024-02-02T05:57:04.609Z,47.75
2024-02-02T06:02:04.232Z,40.97
2024-02-02T06:07:03.338Z,44.45
2024-02-02T06:12:04.421Z,41.22
2024-02-02T06:17:04.074Z,46.15
2024-02-02T06:22:03.002Z,48.85
2024-02-02T06:27:03.336Z,41.33
2024-02-02T06:32:02.683Z,44.33
2024-02-02T06:37:01.715Z,61.38
2024-02-02T06:42:00.699Z,53.30
2024-02-02T06:47:01.308Z,50.83
2024-02-02T06:52:00.239Z,39.13
2024-02-02T06:56:59.255Z,50.05
2024-02-02T07:01:58.907Z,41.03
2024-02-02T07:06:59.705Z,38.95
2024-02-02T07:12:01.755Z,38.58
2024-02-02T07:17:00.703Z,36.75
2024-02-02T07:22:01.002Z,37.42
2024-02-02T07:27:00.792Z,38.30
2024-02-02T07:31:59.717Z,34.55
2024-02-02T07:37:00.712Z,34.55
2024-02-02T07:42:01.886Z,35.75
2024-02-02T07:47:00.941Z,36.38
2024-02-02T07:52:01.397Z,30.98
2024-02-02T07:57:00.471Z,29.88
2024-02-02T08:01:59.372Z,27.38
2024-02-02T08:06:58.522Z,32.55
2024-02-02T08:11:59.305Z,32.00
2024-02-02T08:16:58.278Z,28.15
2024-02-02T08:21:57.633Z,30.00
2024-02-02T08:26:57.406Z,29.48
2024-02-02T08:31:58.672Z,29.67
2024-02-02T08:36:57.585Z,27.30
2024-02-02T08:41:57.003Z,32.25
2024-02-02T08:46:57.360Z,29.17
2024-02-02T08:51:56.304Z,28.83
2024-02-02T08:57:21.153Z,31.25
2024-02-02T09:02:47.176Z,30.27
2024-02-02T09:07:52.005Z,33.95
2024-02-02T09:12:55.039Z,39.53
2024-02-02T09:17:56.129Z,36.65
2024-02-02T09:23:00.786Z,31.92
2024-02-02T09:27:59.897Z,30.58
2024-02-02T09:33:01.446Z,32.38
2024-02-02T09:38:01.150Z,33.05
2024-02-02T09:43:13.543Z,34.55
2024-02-02T09:48:26.607Z,38.72
2024-02-02T09:54:07.487Z,38.00
2024-02-02T09:59:13.646Z,36.05
2024-02-02T10:04:30.501Z,35.92
2024-02-02T10:09:59.306Z,37.17
2024-02-02T10:15:25.596Z,48.80
2024-02-02T10:20:30.885Z,36.50
2024-02-02T10:25:48.316Z,39.55
2024-02-02T10:30:59.635Z,36.13
2024-02-02T10:36:12.851Z,33.78
2024-02-02T10:41:22.044Z,34.78
2024-02-02T10:46:37.606Z,35.40
2024-02-02T10:51:59.698Z,37.40
2024-02-02T10:57:18.404Z,33.83
2024-02-02T11:02:28.056Z,35.60
2024-02-02T11:07:31.259Z,30.00
2024-02-02T11:12:43.882Z,27.80
2024-02-02T11:17:51.900Z,31.52
2024-02-02T11:23:00.880Z,26.08
2024-02-02T11:28:06.056Z,23.77
2024-02-02T11:33:22.611Z,26.48
2024-02-02T11:38:42.395Z,20.75
2024-02-02T11:43:42.510Z,28.48
2024-02-02T11:48:44.445Z,29.67
2024-02-02T11:54:06.901Z,30.20
2024-02-02T11:59:13.783Z,34.47
2024-02-02T12:04:33.505Z,30.15
2024-02-02T12:09:45.095Z,32.45
2024-02-02T12:14:48.947Z,29.20
2024-02-02T12:19:48.087Z,32.40
2024-02-02T12:24:48.552Z,32.75
2024-02-02T12:29:47.437Z,34.83
2024-02-02T12:34:47.814Z,25.65
2024-02-02T12:39:51.040Z,25.23
2024-02-02T12:44:52.107Z,23.23
2024-02-02T12:49:51.175Z,26.58
2024-02-02T12:54:53.709Z,22.00
2024-02-02T12:59:53.557Z,27.73
2024-02-02T13:04:54.966Z,23.73
2024-02-02T13:09:58.763Z,21.75
2024-02-02T13:15:09.492Z,28.13
2024-02-02T13:20:13.152Z,21.27
2024-02-02T13:25:13.560Z,20.98
2024-02-02T13:30:15.042Z,24.95
2024-02-02T13:35:16.374Z,21.42
2024-02-02T13:40:16.881Z,19.90
2024-02-02T13:45:17.035Z,22.00
2024-02-02T13:50:20.750Z,22.23
2024-02-02T13:55:24.097Z,27.27
2024-02-02T14:00:23.360Z,27.92
2024-02-02T14:05:22.342Z,28.45
2024-02-02T14:10:22.618Z,24.70
2024-02-02T14:15:21.916Z,32.45
2024-02-02T14:20:27.153Z,36.75
2024-02-02T14:25:30.841Z,65.57
2024-02-02T14:30:30.195Z,91.97
2024-02-02T14:35:29.258Z,61.08
2024-02-02T14:40:30.305Z,76.35
2024-02-02T14:45:29.333Z,58.53
2024-02-02T14:50:29.365Z,43.72
2024-02-02T14:55:31.550Z,39.63
2024-02-02T15:00:32.777Z,27.42
2024-02-02T15:05:34.145Z,30.15
2024-02-02T15:10:35.332Z,23.67
2024-02-02T15:15:34.486Z,36.38
2024-02-02T15:20:33.545Z,32.72
2024-02-02T15:25:32.752Z,37.72
2024-02-02T15:30:36.429Z,39.67
2024-02-02T15:40:34.115Z,51.90
2024-02-02T15:45:34.547Z,43.20
2024-02-02T15:50:33.446Z,37.13
2024-02-02T15:55:32.360Z,36.00
2024-02-02T16:00:31.288Z,38.60
2024-02-02T16:05:31.691Z,78.20
2024-02-02T16:10:31.124Z,66.82
2024-02-02T16:15:30.208Z,72.57
2024-02-02T16:20:40.304Z,70.63
2024-02-02T16:25:39.134Z,31.15
2024-02-02T16:30:38.120Z,39.53
2024-02-02T16:35:39.415Z,30.88
2024-02-02T16:40:38.453Z,49.28
2024-02-02T16:45:37.909Z,35.22
2024-02-02T16:50:38.677Z,61.53
2024-02-02T16:55:37.559Z,54.00
2024-02-02T17:00:37.925Z,61.17
2024-02-02T17:05:38.662Z,82.75
2024-02-02T17:10:39.582Z,84.03
2024-02-02T17:15:39.283Z,75.75
2024-02-02T17:20:39.768Z,71.68
2024-02-02T17:25:38.709Z,79.70
2024-02-02T17:30:38.875Z,77.88
2024-02-02T17:35:44.027Z,65.55
2024-02-02T17:40:47.619Z,62.75
2024-02-02T17:45:46.896Z,63.60
2024-02-02T17:50:47.951Z,59.90
2024-02-02T17:55:46.947Z,64.10
2024-02-02T18:00:46.145Z,60.17
2024-02-02T18:05:46.617Z,59.50
2024-02-02T18:10:45.520Z,61.20
2024-02-02T18:15:44.801Z,79.95
2024-02-02T18:20:43.819Z,68.25
2024-02-02T18:25:44.193Z,66.32
2024-02-02T18:30:43.152Z,64.88
2024-02-02T18:35:42.092Z,67.65
2024-02-02T18:40:41.027Z,59.72
2024-02-02T18:45:41.645Z,92.35
2024-02-02T18:50:40.568Z,66.82
2024-02-02T18:55:39.546Z,84.40
2024-02-02T19:00:38.644Z,69.53
2024-02-02T19:05:39.147Z,48.63
2024-02-02T19:10:38.250Z,55.83
2024-02-02T19:15:37.409Z,49.58
2024-02-02T19:20:40.014Z,53.60
2024-02-02T19:25:40.319Z,46.38
2024-02-02T19:30:39.388Z,64.20
2024-02-02T19:35:38.455Z,66.78
2024-02-02T19:40:37.312Z,64.55
2024-02-02T19:45:38.937Z,75.75
2024-02-02T19:50:37.888Z,55.15
2024-02-02T19:55:36.842Z,57.60
2024-02-02T20:00:37.278Z,55.13
2024-02-02T20:05:36.296Z,61.85
2024-02-02T20:10:35.483Z,60.05
2024-02-02T20:15:35.153Z,61.75
2024-02-02T20:20:36.214Z,72.65
2024-02-02T20:25:35.206Z,59.95
2024-02-02T20:30:36.498Z,61.58
2024-02-02T20:35:38.899Z,67.00
2024-02-02T20:40:38.128Z,80.78
2024-02-02T20:45:37.991Z,81.95
2024-02-02T20:50:39.005Z,87.43
2024-02-02T20:55:38.091Z,85.13
2024-02-02T21:00:40.500Z,67.50
2024-02-02T21:05:41.632Z,46.90
2024-02-02T21:10:40.679Z,57.35
2024-02-02T21:15:41.943Z,40.92
2024-02-02T21:20:44.683Z,50.63
2024-02-02T21:25:44.498Z,59.33
2024-02-02T21:30:45.199Z,64.40
2024-02-02T21:35:46.833Z,55.17
2024-02-02T21:40:45.789Z,46.60
2024-02-02T21:45:44.733Z,42.65
2024-02-02T21:50:45.722Z,40.10
2024-02-02T21:55:46.411Z,39.95
2024-02-02T22:00:45.493Z,44.63
2024-02-02T22:05:45.980Z,46.08
2024-02-02T22:10:44.993Z,45.28
2024-02-02T22:15:44.216Z,48.38
2024-02-02T22:20:46.438Z,51.42
2024-02-02T22:25:47.005Z,55.85
2024-02-02T22:30:46.554Z,51.08
2024-02-02T22:35:46.083Z,57.65
2024-02-02T22:40:46.632Z,53.78
2024-02-02T22:45:45.844Z,46.70
2024-02-02T22:50:45.114Z,51.90
2024-02-02T22:55:44.523Z,49.42
2024-02-02T23:00:49.137Z,58.42
2024-02-02T23:05:48.263Z,54.40
2024-02-02T23:10:47.394Z,57.20
2024-02-02T23:15:47.885Z,56.78
2024-02-02T23:20:46.938Z,59.33
2024-02-02T23:25:45.910Z,60.03
2024-02-02T23:30:45.266Z,59.67
2024-02-02T23:35:46.048Z,56.92
2024-02-02T23:40:45.055Z,57.85
2024-02-02T23:45:43.999Z,72.95
2024-02-02T23:50:43.307Z,127.07
2024-02-02T23:55:43.643Z,105.97
